Terminal Aerodrome Forecast
Issued by NWS Goodland, KS

Home | Current Version | Previous Version | Text Only | Print | Product List | Glossary On
Versions: 1 2 3 4 5 6 7 8 9 10 11 12 13 14 15
000
FTUS43 KGLD 300223 AAA
TAFGLD
TAF AMD
KGLD 300223Z 3002/3024 20008KT P6SM FEW100
     FM301300 23013KT P6SM FEW250
     FM302100 19012KT P6SM FEW120=

USA.gov is the U.S. government's official web portal to all federal, state and local government web resources and services.